Time;durP1;ratioP1;P1;durP2;ratioP2;P2;SDS_P1;SDS_P2;PMS_P1;PMS_P2;Temp;Humidity;BMP_temperature;BMP_pressure;BME280_temperature;BME280_humidity;BME280_pressure;Samples;Min_cycle;Max_cycle;Signal;HPM_P1;HPM_P2
2023/07/17 00:00:30;;;;;;;12.13;4.68;;;;;;;17.94;100.00;101131.97;5007163;28;20068;-72
2023/07/17 00:03:08;;;;;;;14.90;4.40;;;;;;;17.89;100.00;101129.72;5005943;28;20053;-71
2023/07/17 00:05:34;;;;;;;18.38;4.82;;;;;;;17.80;100.00;101135.28;5003162;28;20077;-72
2023/07/17 00:08:01;;;;;;;12.05;4.25;;;;;;;17.69;100.00;101143.31;5007354;28;20417;-73
2023/07/17 00:10:27;;;;;;;11.77;4.30;;;;;;;17.53;100.00;101137.84;4984561;28;20577;-73
2023/07/17 00:12:54;;;;;;;16.05;4.88;;;;;;;17.50;100.00;101138.75;5003467;28;20524;-72
2023/07/17 00:15:20;;;;;;;12.73;4.65;;;;;;;17.55;100.00;101141.00;5007144;28;20046;-73
2023/07/17 00:17:47;;;;;;;18.98;5.15;;;;;;;17.59;100.00;101150.09;5007778;28;20058;-74
2023/07/17 00:20:14;;;;;;;14.02;4.50;;;;;;;17.57;100.00;101158.19;5004842;28;20049;-73
2023/07/17 00:22:40;;;;;;;14.73;4.43;;;;;;;17.59;100.00;101164.16;5008245;28;20066;-72
2023/07/17 00:25:08;;;;;;;14.93;4.85;;;;;;;17.63;100.00;101181.69;4989531;28;20050;-74
2023/07/17 00:27:35;;;;;;;14.25;5.03;;;;;;;17.67;100.00;101185.16;5007333;28;20170;-73
2023/07/17 00:30:02;;;;;;;14.85;4.63;;;;;;;17.70;100.00;101192.69;5006009;28;20057;-73
2023/07/17 00:32:29;;;;;;;14.38;3.95;;;;;;;17.69;100.00;101191.13;5004427;28;20049;-71
2023/07/17 00:34:56;;;;;;;10.43;3.58;;;;;;;17.64;100.00;101198.09;5007327;28;20050;-73
2023/07/17 00:37:22;;;;;;;4.85;1.58;;;;;;;17.42;100.00;101204.91;4983833;28;20057;-73
2023/07/17 00:39:50;;;;;;;11.77;3.45;;;;;;;17.17;100.00;101189.66;4989709;28;20100;-73
2023/07/17 00:42:16;;;;;;;12.52;3.75;;;;;;;17.13;100.00;101180.56;4995549;28;20048;-72
2023/07/17 00:44:43;;;;;;;11.93;4.05;;;;;;;16.88;100.00;101188.97;5001139;28;20054;-71
2023/07/17 00:47:10;;;;;;;8.30;2.95;;;;;;;16.79;100.00;101218.97;5004823;28;20077;-73
2023/07/17 00:49:37;;;;;;;11.95;4.32;;;;;;;16.60;100.00;101220.72;5006747;28;20501;-73
2023/07/17 00:52:05;;;;;;;13.82;4.28;;;;;;;16.51;100.00;101223.41;5000655;28;20052;-72
2023/07/17 00:54:32;;;;;;;10.70;3.72;;;;;;;16.47;100.00;101224.75;5001101;28;20089;-72
2023/07/17 00:57:03;;;;;;;10.05;3.85;;;;;;;16.22;100.00;101231.06;5005034;28;20123;-72
2023/07/17 00:59:30;;;;;;;10.02;3.85;;;;;;;16.18;100.00;101238.78;5007506;28;20058;-73
2023/07/17 01:01:58;;;;;;;11.60;3.78;;;;;;;16.15;100.00;101236.88;5000559;28;20073;-72
2023/07/17 01:04:24;;;;;;;13.20;4.05;;;;;;;16.16;100.00;101218.00;5006701;28;20054;-74
2023/07/17 01:06:51;;;;;;;19.23;4.85;;;;;;;16.29;100.00;101207.63;4987157;28;20528;-73
2023/07/17 01:09:18;;;;;;;12.68;4.38;;;;;;;16.31;100.00;101217.19;5006177;28;20050;-73
2023/07/17 01:11:44;;;;;;;11.70;4.38;;;;;;;16.28;100.00;101215.28;4990032;28;20049;-73
2023/07/17 01:14:15;;;;;;;10.80;4.10;;;;;;;16.14;100.00;101228.91;5006261;28;20136;-75
2023/07/17 01:16:44;;;;;;;12.35;4.55;;;;;;;16.11;100.00;101227.78;4986775;28;20104;-73
2023/07/17 01:19:11;;;;;;;15.20;4.72;;;;;;;16.12;100.00;101232.13;4987027;28;20581;-73
2023/07/17 01:21:48;;;;;;;16.92;5.07;;;;;;;16.17;100.00;101223.16;5008113;28;20057;-73
2023/07/17 01:24:15;;;;;;;11.60;3.97;;;;;;;16.24;100.00;101228.56;5007202;28;20050;-73
2023/07/17 01:26:41;;;;;;;14.05;4.78;;;;;;;16.26;100.00;101234.56;5007746;28;20057;-74
2023/07/17 01:29:08;;;;;;;13.90;5.25;;;;;;;16.26;100.00;101239.38;5002049;28;20133;-73
2023/07/17 01:31:36;;;;;;;16.65;4.88;;;;;;;16.16;100.00;101232.03;4999492;28;20116;-73
2023/07/17 01:34:04;;;;;;;15.23;4.57;;;;;;;16.03;100.00;101228.41;4989307;28;20506;-73
2023/07/17 01:36:30;;;;;;;18.25;5.20;;;;;;;15.95;100.00;101224.22;5003596;28;20473;-73
2023/07/17 01:38:57;;;;;;;12.02;4.65;;;;;;;15.99;100.00;101228.50;5007217;28;20082;-70
2023/07/17 01:41:23;;;;;;;17.55;5.05;;;;;;;15.96;100.00;101239.78;4987089;28;20050;-74
2023/07/17 01:43:50;;;;;;;16.17;5.30;;;;;;;15.93;100.00;101252.69;5005658;28;20046;-72
2023/07/17 01:46:17;;;;;;;16.85;5.30;;;;;;;15.91;100.00;101249.56;4998282;28;20092;-72
2023/07/17 01:48:44;;;;;;;13.07;4.00;;;;;;;15.81;100.00;101247.03;5001428;28;20077;-73
2023/07/17 01:51:11;;;;;;;17.45;4.95;;;;;;;15.78;100.00;101245.09;4998357;28;20054;-74
2023/07/17 01:53:37;;;;;;;12.93;4.72;;;;;;;15.79;100.00;101243.84;5006349;28;20497;-73
2023/07/17 01:56:05;;;;;;;14.77;4.75;;;;;;;15.81;100.00;101244.22;5003799;28;20109;-72
2023/07/17 01:58:31;;;;;;;11.57;3.85;;;;;;;15.64;100.00;101239.88;5012310;28;20077;-72
2023/07/17 02:00:58;;;;;;;12.98;4.75;;;;;;;15.73;100.00;101232.41;5011352;28;20077;-74
2023/07/17 02:03:24;;;;;;;14.60;4.70;;;;;;;15.65;100.00;101238.63;5012066;28;20509;-73
2023/07/17 02:05:51;;;;;;;11.80;4.50;;;;;;;15.71;100.00;101234.06;5012251;28;20082;-73
2023/07/17 02:08:18;;;;;;;10.98;4.32;;;;;;;15.75;100.00;101220.75;5010745;28;20266;-73
2023/07/17 02:10:49;;;;;;;10.93;4.18;;;;;;;15.71;100.00;101215.25;5005285;28;20070;-74
2023/07/17 02:13:15;;;;;;;18.02;4.20;;;;;;;15.72;100.00;101224.44;4992327;28;20049;-73
2023/07/17 02:15:42;;;;;;;12.35;4.18;;;;;;;15.71;100.00;101226.47;5007982;28;20054;-73
2023/07/17 02:18:08;;;;;;;10.57;3.45;;;;;;;15.63;100.00;101222.25;5011862;28;20080;-73
2023/07/17 02:20:35;;;;;;;10.65;3.95;;;;;;;15.62;100.00;101226.28;5008201;28;20061;-73
2023/07/17 02:23:02;;;;;;;13.88;4.78;;;;;;;15.69;100.00;101228.91;5002019;28;20050;-73
2023/07/17 02:25:28;;;;;;;12.45;4.50;;;;;;;15.79;100.00;101232.66;5006121;28;20154;-74
2023/07/17 02:27:55;;;;;;;14.57;4.55;;;;;;;15.80;100.00;101223.78;5008896;28;20514;-75
2023/07/17 02:30:22;;;;;;;15.02;4.88;;;;;;;15.79;100.00;101216.63;5009332;28;20078;-73
2023/07/17 02:32:48;;;;;;;12.13;3.83;;;;;;;15.77;100.00;101227.50;4990107;28;20050;-74
2023/07/17 02:35:15;;;;;;;13.10;4.55;;;;;;;15.72;100.00;101236.44;5005998;28;20046;-73
2023/07/17 02:37:41;;;;;;;9.18;3.50;;;;;;;15.71;100.00;101243.28;5007825;28;20050;-74
2023/07/17 02:40:10;;;;;;;15.73;4.65;;;;;;;15.66;100.00;101243.03;4992191;28;20050;-73
2023/07/17 02:42:37;;;;;;;10.68;4.43;;;;;;;15.65;100.00;101245.03;5004595;28;20050;-73
2023/07/17 02:45:08;;;;;;;13.57;4.38;;;;;;;15.60;100.00;101245.56;5003371;28;20576;-73
2023/07/17 02:47:34;;;;;;;14.07;4.65;;;;;;;15.61;100.00;101240.75;5010933;28;20103;-73
2023/07/17 02:50:04;;;;;;;14.93;4.82;;;;;;;15.64;100.00;101265.88;5003255;28;20529;-72
2023/07/17 02:52:34;;;;;;;12.02;4.38;;;;;;;15.59;100.00;101257.22;5010528;28;20464;-73
2023/07/17 02:55:04;;;;;;;6.32;2.33;;;;;;;15.56;100.00;101266.50;5011256;28;20428;-72
2023/07/17 02:57:34;;;;;;;16.10;4.82;;;;;;;15.61;100.00;101266.75;5007233;28;20056;-73
2023/07/17 03:00:12;;;;;;;10.98;2.90;;;;;;;15.54;100.00;101258.53;4992678;28;20107;-72
2023/07/17 03:02:40;;;;;;;8.43;3.60;;;;;;;15.58;100.00;101261.22;5011529;28;20104;-72
2023/07/17 03:05:10;;;;;;;9.45;3.97;;;;;;;15.51;100.00;101253.00;5008995;28;20050;-73
2023/07/17 03:07:40;;;;;;;12.55;4.57;;;;;;;15.50;100.00;101252.25;5008681;28;20057;-73
2023/07/17 03:10:08;;;;;;;14.82;5.10;;;;;;;15.50;100.00;101252.25;5008032;28;20046;-72
2023/07/17 03:12:34;;;;;;;14.05;5.43;;;;;;;15.34;100.00;101257.81;5010379;28;20099;-73
2023/07/17 03:15:02;;;;;;;17.98;4.68;;;;;;;15.47;100.00;101255.91;4987089;28;20081;-72
2023/07/17 03:17:28;;;;;;;13.90;5.32;;;;;;;15.50;100.00;101255.03;5010849;28;20425;-73
2023/07/17 03:19:55;;;;;;;15.40;4.63;;;;;;;15.41;100.00;101249.25;5006768;28;20054;-73
2023/07/17 03:22:21;;;;;;;13.50;4.40;;;;;;;15.38;100.00;101244.53;5010398;28;20046;-70
2023/07/17 03:24:48;;;;;;;15.23;4.60;;;;;;;15.42;100.00;101256.44;5008697;28;20494;-73
2023/07/17 03:27:15;;;;;;;14.40;4.45;;;;;;;15.39;100.00;101257.28;5005977;28;20084;-73
2023/07/17 03:29:42;;;;;;;15.20;4.60;;;;;;;15.33;100.00;101263.84;5005936;28;20057;-72
2023/07/17 03:32:08;;;;;;;17.63;4.70;;;;;;;15.42;100.00;101264.84;5009867;28;20526;-74
2023/07/17 03:34:35;;;;;;;19.83;5.40;;;;;;;15.31;100.00;101275.47;5003620;28;20077;-74
2023/07/17 03:37:02;;;;;;;13.15;3.95;;;;;;;15.32;100.00;101268.66;5010249;28;20049;-72
2023/07/17 03:39:29;;;;;;;13.23;3.80;;;;;;;15.28;100.00;101267.94;4992779;28;20057;-73
2023/07/17 03:41:56;;;;;;;7.05;2.70;;;;;;;15.23;100.00;101268.47;5008521;28;20049;-72
2023/07/17 03:44:22;;;;;;;14.95;4.75;;;;;;;15.24;100.00;101269.25;5007521;28;20045;-73
2023/07/17 03:46:49;;;;;;;17.38;4.45;;;;;;;15.24;100.00;101275.66;5010281;28;20423;-74
2023/07/17 03:49:16;;;;;;;13.13;4.18;;;;;;;15.20;100.00;101269.34;5009251;28;20108;-72
2023/07/17 03:51:42;;;;;;;8.18;3.35;;;;;;;15.18;100.00;101283.00;4992192;28;20045;-73
2023/07/17 03:54:10;;;;;;;17.75;4.75;;;;;;;15.08;100.00;101280.44;5008334;28;20525;-73
2023/07/17 03:56:39;;;;;;;9.00;3.55;;;;;;;15.05;100.00;101282.09;5006419;28;20398;-72
2023/07/17 03:59:05;;;;;;;12.20;3.97;;;;;;;14.89;100.00;101280.03;4990272;28;20050;-71
2023/07/17 04:01:32;;;;;;;6.63;3.20;;;;;;;14.95;100.00;101291.50;5010286;28;20112;-73
2023/07/17 04:03:59;;;;;;;10.18;3.00;;;;;;;14.97;100.00;101289.09;5000968;28;20163;-72
2023/07/17 04:06:25;;;;;;;12.82;4.65;;;;;;;14.98;100.00;101290.66;5010103;28;20054;-72
2023/07/17 04:08:52;;;;;;;13.35;4.38;;;;;;;14.86;100.00;101280.13;5009442;28;20528;-74
2023/07/17 04:11:19;;;;;;;12.80;4.32;;;;;;;14.92;100.00;101283.97;5008697;28;20108;-72
2023/07/17 04:13:46;;;;;;;12.57;4.20;;;;;;;14.92;100.00;101281.19;5005247;28;20050;-72
2023/07/17 04:16:13;;;;;;;12.77;4.25;;;;;;;14.94;100.00;101278.75;5000790;28;20069;-73
2023/07/17 04:18:40;;;;;;;9.90;3.05;;;;;;;14.84;100.00;101282.56;5003658;28;20628;-75
2023/07/17 04:21:06;;;;;;;9.05;4.25;;;;;;;14.82;100.00;101294.19;5009504;28;20557;-73
2023/07/17 04:23:33;;;;;;;9.30;3.55;;;;;;;14.84;100.00;101296.56;5004643;28;20074;-72
2023/07/17 04:25:59;;;;;;;13.73;5.35;;;;;;;14.81;100.00;101298.22;5009418;28;20089;-72
2023/07/17 04:28:26;;;;;;;10.48;3.75;;;;;;;14.73;100.00;101299.59;5000648;28;20143;-72
2023/07/17 04:30:52;;;;;;;12.65;4.03;;;;;;;14.68;100.00;101297.31;5007064;28;20156;-71
2023/07/17 04:33:19;;;;;;;12.20;3.92;;;;;;;14.81;100.00;101306.63;4983108;28;20461;-72
2023/07/17 04:35:45;;;;;;;14.68;4.25;;;;;;;14.78;100.00;101313.09;5009517;28;20472;-72
2023/07/17 04:38:12;;;;;;;14.38;4.20;;;;;;;14.90;100.00;101315.22;5005456;28;20092;-73
2023/07/17 04:40:38;;;;;;;9.15;3.80;;;;;;;14.79;100.00;101325.06;4999571;28;20053;-74
2023/07/17 04:43:05;;;;;;;10.30;3.42;;;;;;;14.86;100.00;101331.28;4989545;28;20105;-73
2023/07/17 04:45:31;;;;;;;8.93;3.42;;;;;;;14.81;100.00;101334.63;5003916;28;20049;-72
2023/07/17 04:47:58;;;;;;;10.07;3.63;;;;;;;14.87;100.00;101335.69;4991251;28;20054;-72
2023/07/17 04:50:28;;;;;;;4.47;1.83;;;;;;;14.87;100.00;101332.91;5009510;28;20053;-73
2023/07/17 04:52:54;;;;;;;3.92;1.50;;;;;;;14.79;100.00;101337.03;5006224;28;20058;-72
2023/07/17 04:55:22;;;;;;;4.57;2.45;;;;;;;14.75;100.00;101333.53;5005910;28;20046;-73
2023/07/17 04:57:49;;;;;;;11.85;3.95;;;;;;;14.87;100.00;101346.09;5007158;28;20521;-73
2023/07/17 05:00:16;;;;;;;14.20;4.20;;;;;;;14.92;100.00;101342.78;4989932;28;20050;-71
2023/07/17 05:02:43;;;;;;;4.60;2.35;;;;;;;14.91;100.00;101347.59;5008571;28;20057;-72
2023/07/17 05:05:10;;;;;;;4.78;2.00;;;;;;;14.90;100.00;101342.44;5000215;28;20056;-72
2023/07/17 05:07:38;;;;;;;8.10;3.45;;;;;;;15.00;100.00;101345.00;5008931;28;20070;-72
2023/07/17 05:10:05;;;;;;;9.73;4.00;;;;;;;15.13;100.00;101333.13;5000621;28;20116;-72
2023/07/17 05:12:32;;;;;;;9.38;3.03;;;;;;;15.11;100.00;101339.16;5008899;28;20054;-69
2023/07/17 05:14:58;;;;;;;13.98;5.43;;;;;;;15.16;100.00;101338.66;5004176;28;20041;-70
2023/07/17 05:17:25;;;;;;;7.50;2.30;;;;;;;15.14;100.00;101345.91;5007416;28;20064;-69
2023/07/17 05:19:51;;;;;;;9.30;4.35;;;;;;;15.24;100.00;101347.69;5005674;28;20049;-72
2023/07/17 05:22:18;;;;;;;13.23;4.30;;;;;;;15.27;100.00;101342.00;5006996;28;20100;-72
2023/07/17 05:24:45;;;;;;;13.40;4.35;;;;;;;15.37;100.00;101341.00;5008573;28;20140;-72
2023/07/17 05:27:11;;;;;;;12.63;4.40;;;;;;;15.33;100.00;101347.88;4984608;28;20092;-73
2023/07/17 05:29:38;;;;;;;14.45;3.70;;;;;;;15.25;100.00;101352.84;4999056;28;20505;-72
2023/07/17 05:32:05;;;;;;;11.68;4.00;;;;;;;15.41;100.00;101357.72;5004846;28;20057;-72
2023/07/17 05:34:32;;;;;;;10.48;2.70;;;;;;;15.43;100.00;101358.09;4984887;28;20042;-73
2023/07/17 05:36:59;;;;;;;9.60;3.67;;;;;;;15.55;100.00;101357.38;5007878;28;20141;-73
2023/07/17 05:39:26;;;;;;;5.57;2.03;;;;;;;15.41;100.00;101361.31;4983882;28;20057;-72
2023/07/17 05:41:53;;;;;;;13.95;4.22;;;;;;;15.58;100.00;101371.34;5000272;28;20081;-72
2023/07/17 05:44:19;;;;;;;12.70;4.22;;;;;;;15.69;100.00;101359.88;5007144;28;20042;-72
2023/07/17 05:46:47;;;;;;;10.10;3.17;;;;;;;15.67;100.00;101363.13;5008437;28;20127;-72
2023/07/17 05:49:14;;;;;;;11.80;3.08;;;;;;;15.66;100.00;101371.97;4997284;28;20107;-72
2023/07/17 05:51:41;;;;;;;8.35;3.20;;;;;;;15.61;100.00;101375.28;4996386;28;20057;-74
2023/07/17 05:54:07;;;;;;;7.57;2.08;;;;;;;15.56;100.00;101370.97;4992851;28;20133;-73
2023/07/17 05:56:34;;;;;;;9.32;3.33;;;;;;;15.69;100.00;101365.50;4999784;28;20152;-74
2023/07/17 05:59:00;;;;;;;12.60;3.22;;;;;;;15.80;100.00;101366.00;5005172;28;20132;-75
2023/07/17 06:01:27;;;;;;;6.68;2.28;;;;;;;15.68;100.00;101370.28;5001586;28;20129;-73
2023/07/17 06:03:54;;;;;;;12.07;3.88;;;;;;;15.84;100.00;101363.91;5007717;28;20054;-74
2023/07/17 06:06:21;;;;;;;13.80;4.32;;;;;;;15.98;100.00;101372.75;5005978;28;20042;-75
2023/07/17 06:08:47;;;;;;;21.40;5.22;;;;;;;15.98;100.00;101369.16;5006927;28;20081;-75
2023/07/17 06:11:14;;;;;;;5.70;1.95;;;;;;;15.80;100.00;101375.19;5007256;28;20104;-72
2023/07/17 06:13:41;;;;;;;11.23;3.05;;;;;;;15.80;100.00;101363.97;5005073;28;20072;-73
2023/07/17 06:16:07;;;;;;;4.88;1.85;;;;;;;15.88;100.00;101373.81;5007427;28;20058;-72
2023/07/17 06:18:35;;;;;;;6.40;2.42;;;;;;;16.01;100.00;101376.69;5002424;28;20141;-73
2023/07/17 06:21:03;;;;;;;6.75;1.73;;;;;;;15.92;100.00;101377.31;5007762;28;20081;-74
2023/07/17 06:23:29;;;;;;;7.57;2.55;;;;;;;15.96;100.00;101375.19;4999884;28;20058;-74
2023/07/17 06:25:56;;;;;;;10.30;3.33;;;;;;;15.89;100.00;101385.78;5005291;28;20088;-74
2023/07/17 06:28:22;;;;;;;11.15;3.05;;;;;;;16.13;100.00;101385.19;5005201;28;20163;-74
2023/07/17 06:30:49;;;;;;;15.10;5.03;;;;;;;16.23;100.00;101386.94;5005868;28;20838;-74
2023/07/17 06:33:16;;;;;;;14.63;4.88;;;;;;;16.26;100.00;101391.69;5006540;28;20572;-74
2023/07/17 06:35:44;;;;;;;19.02;6.35;;;;;;;16.37;100.00;101394.22;5001145;28;20103;-72
2023/07/17 06:38:10;;;;;;;9.60;2.78;;;;;;;16.45;100.00;101390.00;4999275;28;20422;-75
2023/07/17 06:40:38;;;;;;;21.70;4.60;;;;;;;16.29;100.00;101390.81;5007760;28;20049;-74
2023/07/17 06:43:04;;;;;;;18.00;5.72;;;;;;;16.32;100.00;101395.53;5004270;28;20213;-73
2023/07/17 06:45:31;;;;;;;9.80;2.58;;;;;;;16.27;100.00;101400.91;5003437;28;20124;-73
2023/07/17 06:47:57;;;;;;;12.73;2.53;;;;;;;16.41;100.00;101400.53;5011322;28;20045;-74
2023/07/17 06:50:24;;;;;;;21.85;5.70;;;;;;;16.53;100.00;101411.81;5004413;28;20878;-75
2023/07/17 06:52:50;;;;;;;7.97;2.75;;;;;;;16.45;100.00;101406.84;4992020;28;20053;-73
2023/07/17 06:55:17;;;;;;;16.60;5.80;;;;;;;16.60;100.00;101408.81;5002500;28;20080;-75
2023/07/17 06:57:44;;;;;;;18.92;6.40;;;;;;;16.72;100.00;101399.66;5008286;28;20050;-74
2023/07/17 07:00:11;;;;;;;14.90;3.80;;;;;;;16.72;100.00;101412.91;5010786;28;20584;-73
2023/07/17 07:02:37;;;;;;;14.48;5.28;;;;;;;16.89;100.00;101408.81;5007965;28;20076;-73
2023/07/17 07:05:05;;;;;;;8.70;2.97;;;;;;;16.81;100.00;101413.06;5004810;28;20047;-74
2023/07/17 07:07:32;;;;;;;11.63;3.20;;;;;;;16.87;100.00;101412.06;5010141;28;20110;-74
2023/07/17 07:09:59;;;;;;;12.60;4.15;;;;;;;16.95;100.00;101407.81;5008338;28;20058;-74
2023/07/17 07:12:25;;;;;;;11.13;3.08;;;;;;;17.07;100.00;101415.50;5004026;28;20079;-75
2023/07/17 07:14:52;;;;;;;13.95;4.00;;;;;;;16.77;100.00;101427.19;5011176;28;20050;-73
2023/07/17 07:17:18;;;;;;;7.97;3.13;;;;;;;16.75;100.00;101417.66;5002847;28;20119;-75
2023/07/17 07:19:45;;;;;;;15.38;4.55;;;;;;;16.85;100.00;101427.78;5008674;28;20081;-76
2023/07/17 07:22:11;;;;;;;8.38;2.60;;;;;;;16.92;100.00;101425.56;4985209;28;20108;-75
2023/07/17 07:24:41;;;;;;;21.50;6.43;;;;;;;17.28;100.00;101426.16;5002438;28;20038;-75
2023/07/17 07:27:08;;;;;;;11.95;4.00;;;;;;;17.27;100.00;101416.16;5006901;28;20172;-73
2023/07/17 07:29:34;;;;;;;14.90;5.80;;;;;;;17.21;100.00;101425.56;5002393;28;20050;-74
2023/07/17 07:32:01;;;;;;;17.27;4.82;;;;;;;17.41;100.00;101428.19;4990576;28;20580;-75
2023/07/17 07:34:28;;;;;;;8.70;2.63;;;;;;;17.17;100.00;101425.69;5009924;28;20057;-73
2023/07/17 07:36:54;;;;;;;20.17;5.18;;;;;;;17.38;100.00;101421.44;5008902;28;20054;-76
2023/07/17 07:39:21;;;;;;;13.60;4.95;;;;;;;17.50;100.00;101426.28;5000519;28;20053;-74
2023/07/17 07:41:48;;;;;;;8.10;2.88;;;;;;;17.54;100.00;101437.41;5010680;28;20084;-73
2023/07/17 07:44:14;;;;;;;13.63;4.45;;;;;;;17.65;100.00;101426.66;5009027;28;20049;-75
2023/07/17 07:46:41;;;;;;;5.55;2.38;;;;;;;17.63;100.00;101437.53;5010673;28;20497;-74
2023/07/17 07:49:07;;;;;;;9.32;2.95;;;;;;;17.71;100.00;101442.50;5009966;28;20069;-73
2023/07/17 07:51:34;;;;;;;9.43;3.35;;;;;;;17.65;100.00;101438.66;5009495;28;20085;-75
2023/07/17 07:54:02;;;;;;;8.15;2.88;;;;;;;17.67;100.00;101435.41;5008134;28;20077;-75
2023/07/17 07:56:28;;;;;;;9.10;2.60;;;;;;;17.69;100.00;101447.00;5010288;28;20461;-73
2023/07/17 07:58:55;;;;;;;11.63;3.03;;;;;;;17.59;100.00;101440.47;5006988;28;20576;-75
2023/07/17 08:01:21;;;;;;;5.15;2.47;;;;;;;17.66;100.00;101447.91;5010502;28;20045;-73
2023/07/17 08:03:48;;;;;;;11.88;3.70;;;;;;;17.82;100.00;101442.19;5004824;28;20521;-72
2023/07/17 08:06:14;;;;;;;11.10;4.43;;;;;;;17.81;100.00;101451.84;5005519;28;20056;-72
2023/07/17 08:08:42;;;;;;;13.27;2.72;;;;;;;17.76;100.00;101443.97;4998074;28;20655;-71
2023/07/17 08:11:08;;;;;;;7.72;2.85;;;;;;;17.65;100.00;101446.34;4990295;28;20096;-72
2023/07/17 08:13:35;;;;;;;15.38;4.65;;;;;;;17.81;100.00;101437.75;4992583;28;20081;-73
2023/07/17 08:16:01;;;;;;;5.72;2.70;;;;;;;18.01;100.00;101432.72;5008738;28;20097;-73
2023/07/17 08:18:28;;;;;;;5.47;2.25;;;;;;;18.14;100.00;101430.69;5000877;28;20751;-71
2023/07/17 08:20:55;;;;;;;9.15;2.95;;;;;;;17.91;100.00;101439.44;5001323;28;20073;-72
2023/07/17 08:23:27;;;;;;;6.70;3.17;;;;;;;18.05;100.00;101439.03;4998382;28;20893;-73
2023/07/17 08:25:54;;;;;;;9.23;2.97;;;;;;;18.24;100.00;101440.81;5006041;28;20054;-73
2023/07/17 08:28:20;;;;;;;6.00;1.80;;;;;;;18.29;100.00;101437.44;4993620;28;20080;-73
2023/07/17 08:30:52;;;;;;;5.78;1.95;;;;;;;18.30;100.00;101439.00;5001848;28;20049;-72
2023/07/17 08:33:19;;;;;;;5.38;2.20;;;;;;;18.56;100.00;101443.34;5008889;28;20141;-72
2023/07/17 08:35:45;;;;;;;12.60;3.58;;;;;;;18.77;100.00;101439.78;5002708;28;20050;-73
2023/07/17 08:38:12;;;;;;;8.05;2.83;;;;;;;18.81;100.00;101434.81;5008575;28;20456;-73
2023/07/17 08:40:40;;;;;;;6.72;1.75;;;;;;;18.93;100.00;101437.56;5000320;28;20056;-73
2023/07/17 08:43:07;;;;;;;5.93;1.85;;;;;;;18.83;100.00;101437.94;4997332;28;20541;-72
2023/07/17 08:45:34;;;;;;;5.07;2.58;;;;;;;18.91;100.00;101442.88;5008514;28;20471;-72
2023/07/17 08:48:02;;;;;;;9.27;2.30;;;;;;;18.77;100.00;101453.88;4984240;28;20468;-71
2023/07/17 08:50:30;;;;;;;6.88;2.47;;;;;;;18.91;100.00;101442.88;5006233;28;20058;-74
2023/07/17 08:52:56;;;;;;;8.63;2.80;;;;;;;18.87;100.00;101438.63;4996953;28;20596;-73
2023/07/17 08:55:25;;;;;;;8.55;2.15;;;;;;;19.08;100.00;101452.72;5008861;28;20132;-73
2023/07/17 08:57:52;;;;;;;5.05;2.45;;;;;;;19.01;100.00;101449.38;5007996;28;20045;-76
2023/07/17 09:00:20;;;;;;;11.05;3.05;;;;;;;19.04;100.00;101454.88;5006346;28;20056;-74
2023/07/17 09:02:47;;;;;;;10.30;2.50;;;;;;;19.22;100.00;101440.94;5006427;28;20169;-73
2023/07/17 09:05:14;;;;;;;14.18;3.80;;;;;;;19.40;100.00;101449.50;5000808;28;20076;-74
2023/07/17 09:07:40;;;;;;;10.10;3.30;;;;;;;19.41;100.00;101451.06;5006364;28;20056;-74
2023/07/17 09:10:23;;;;;;;11.25;3.05;;;;;;;19.27;100.00;101459.25;4999576;28;20078;-74
2023/07/17 09:12:57;;;;;;;6.18;1.50;;;;;;;18.94;100.00;101458.88;4996980;28;20050;-73
2023/07/17 09:15:27;;;;;;;9.93;2.60;;;;;;;18.70;100.00;101454.09;5001638;28;20096;-74
2023/07/17 09:17:54;;;;;;;7.72;1.95;;;;;;;18.87;100.00;101455.53;4992846;28;20739;-74
2023/07/17 09:20:20;;;;;;;5.28;1.70;;;;;;;18.99;100.00;101461.09;4997263;28;20133;-73
2023/07/17 09:22:48;;;;;;;11.23;3.63;;;;;;;19.18;100.00;101445.88;4997563;28;20053;-73
2023/07/17 09:25:16;;;;;;;7.78;3.10;;;;;;;19.15;100.00;101451.66;5007210;28;20050;-72
2023/07/17 09:27:47;;;;;;;8.13;2.80;;;;;;;19.02;100.00;101456.56;5008435;28;20073;-72
2023/07/17 09:30:16;;;;;;;9.27;3.15;;;;;;;19.18;100.00;101456.41;5006046;28;21170;-73
2023/07/17 09:32:45;;;;;;;4.35;1.67;;;;;;;19.12;100.00;101446.94;5001527;28;20045;-72
2023/07/17 09:35:12;;;;;;;6.47;2.40;;;;;;;19.34;100.00;101448.50;4984035;28;20046;-70
2023/07/17 09:37:41;;;;;;;5.63;2.22;;;;;;;19.29;100.00;101451.94;5005474;28;20136;-73
2023/07/17 09:40:12;;;;;;;6.68;2.42;;;;;;;19.18;100.00;101459.97;5006800;28;20053;-74
2023/07/17 09:42:41;;;;;;;9.63;2.47;;;;;;;19.29;100.00;101451.13;4988465;28;20049;-73
2023/07/17 09:45:11;;;;;;;5.35;1.60;;;;;;;19.28;100.00;101447.53;5006616;28;20129;-74
2023/07/17 09:47:39;;;;;;;12.18;3.72;;;;;;;19.77;100.00;101455.38;5002405;28;20101;-73
2023/07/17 09:50:07;;;;;;;9.75;3.35;;;;;;;19.83;100.00;101454.28;5003021;28;20062;-70
2023/07/17 09:52:34;;;;;;;13.82;3.75;;;;;;;20.08;100.00;101465.34;5006468;28;20394;-73
2023/07/17 09:55:01;;;;;;;6.07;1.92;;;;;;;19.58;100.00;101469.34;5005141;28;20481;-72
2023/07/17 09:57:33;;;;;;;11.82;2.60;;;;;;;19.82;100.00;101466.03;5003544;28;20394;-70
2023/07/17 10:00:03;;;;;;;6.10;1.77;;;;;;;19.94;100.00;101470.81;5004966;28;20049;-71
2023/07/17 10:02:36;;;;;;;9.15;2.03;;;;;;;19.59;100.00;101473.78;5004662;28;20550;-72
2023/07/17 10:05:05;;;;;;;2.03;1.20;;;;;;;19.56;100.00;101480.34;5003287;28;20047;-70
2023/07/17 10:07:37;;;;;;;4.70;1.98;;;;;;;19.78;100.00;101471.84;5006441;28;20529;-70
2023/07/17 10:10:05;;;;;;;5.97;1.92;;;;;;;19.87;100.00;101479.56;5005945;28;20041;-71
2023/07/17 10:12:35;;;;;;;11.45;2.65;;;;;;;20.13;100.00;101478.06;5002617;28;20047;-72
2023/07/17 10:15:03;;;;;;;6.13;1.00;;;;;;;19.97;100.00;101472.66;5009227;28;20509;-71
2023/07/17 10:17:34;;;;;;;6.55;1.80;;;;;;;19.94;100.00;101474.38;5006430;28;20536;-72
2023/07/17 10:20:06;;;;;;;10.05;2.22;;;;;;;20.11;100.00;101470.06;5011173;28;20054;-72
2023/07/17 10:22:34;;;;;;;10.23;3.20;;;;;;;20.23;100.00;101472.03;5007670;28;20506;-72
2023/07/17 10:25:19;;;;;;;10.38;2.47;;;;;;;20.35;100.00;101475.97;5011983;28;20049;-72
2023/07/17 10:27:55;;;;;;;3.38;1.60;;;;;;;20.59;100.00;101460.03;4996613;28;20046;-72
2023/07/17 10:30:27;;;;;;;4.35;1.90;;;;;;;20.63;100.00;101464.28;5005734;28;20042;-72
2023/07/17 10:33:13;;;;;;;7.97;2.60;;;;;;;20.45;100.00;101471.94;5009213;28;20041;-73
2023/07/17 10:35:57;;;;;;;4.38;1.60;;;;;;;20.71;100.00;101478.84;5005189;28;20041;-73
2023/07/17 10:38:26;;;;;;;7.38;2.17;;;;;;;20.63;100.00;101463.47;5005647;28;20046;-73
2023/07/17 10:41:14;;;;;;;9.43;2.78;;;;;;;20.34;100.00;101477.22;5007475;28;20053;-73
2023/07/17 10:43:51;;;;;;;9.85;2.60;;;;;;;20.99;100.00;101455.03;5005909;28;20050;-73
2023/07/17 10:46:28;;;;;;;5.80;2.05;;;;;;;21.17;100.00;101463.50;5003840;28;20049;-73
2023/07/17 10:49:13;;;;;;;8.85;2.28;;;;;;;21.23;100.00;101465.22;5005620;28;20104;-72
2023/07/17 10:51:47;;;;;;;5.60;1.83;;;;;;;21.12;100.00;101481.88;4977961;28;20053;-72
2023/07/17 10:54:16;;;;;;;7.70;2.25;;;;;;;21.17;100.00;101464.28;4985179;28;20051;-73
2023/07/17 10:56:48;;;;;;;7.97;2.75;;;;;;;21.28;100.00;101470.25;5001126;28;20050;-72
2023/07/17 10:59:17;;;;;;;5.95;1.42;;;;;;;21.14;100.00;101482.22;4997909;28;20111;-71
2023/07/17 11:01:44;;;;;;;4.00;1.83;;;;;;;21.39;100.00;101469.75;5009148;28;20053;-72
2023/07/17 11:04:11;;;;;;;5.47;2.10;;;;;;;21.58;100.00;101480.56;4998792;28;20092;-71
2023/07/17 11:06:38;;;;;;;2.75;1.20;;;;;;;21.17;100.00;101478.41;4991058;28;20061;-71
2023/07/17 11:09:04;;;;;;;7.60;2.50;;;;;;;20.83;100.00;101472.28;4971589;28;20058;-73
2023/07/17 11:11:32;;;;;;;5.38;1.95;;;;;;;21.00;100.00;101476.41;4986942;28;20050;-72
2023/07/17 11:14:01;;;;;;;7.78;2.92;;;;;;;20.93;100.00;101471.03;4987420;28;20148;-72